ACA845 EDDF-CYUL
Flight info
| Callsign | ACA845 |
|---|---|
| Flight time | 3h 3m |
| Altitude | 34000 |
| Route | OBOKA3D/07C OBOKA Z29 TORNU DCT RAVLO Y70 OTBED L60 PENIL M144 BAGSO DCT RESNO/M085F350 DCT 56N020W 57N030W 56N040W 55N050W DCT LOMSI/N0499F360 DCT MOFAT DCT OBRET LFLER7 |
| Aircraft | A35K/H-SDE2E3GHIJ3J4J5LM1ORWXY/LB1D1 |
Departure
| Time | 2026-04-07 15:48 |
|---|---|
| Airport | Frankfurt Main Airport (EDDF) |
Arrival
| Time | 2026-04-07 18:52 |
|---|---|
| Airport | Montreal / Pierre Elliott Trudeau International Airport (CYUL) |
| Time | Latitude | Longitude | Altitude | Speed | Heading |
|---|---|---|---|---|---|
| 2026-04-07 15:03 | 50.04653 | 8.57046 | 362 ft | 0 kts | 91° |
| 2026-04-07 15:32 | 50.04653 | 8.57040 | 362 ft | 5 kts | 91° |
| 2026-04-07 15:32 | 50.04657 | 8.56975 | 368 ft | 4 kts | 108° |
| 2026-04-07 15:32 | 50.04664 | 8.56955 | 368 ft | 2 kts | 162° |
| 2026-04-07 15:33 | 50.04682 | 8.56956 | 371 ft | 4 kts | 199° |
| 2026-04-07 15:33 | 50.04703 | 8.56969 | 367 ft | 2 kts | 204° |
| 2026-04-07 15:33 | 50.04694 | 8.56963 | 366 ft | 6 kts | 205° |
| 2026-04-07 15:33 | 50.04670 | 8.56945 | 368 ft | 2 kts | 203° |
| 2026-04-07 15:37 | 50.04669 | 8.56944 | 362 ft | 0 kts | 203° |
| 2026-04-07 15:37 | 50.04652 | 8.56933 | 368 ft | 6 kts | 201° |
| 2026-04-07 15:37 | 50.04617 | 8.56917 | 366 ft | 0 kts | 195° |
| 2026-04-07 15:39 | 50.04613 | 8.56915 | 366 ft | 3 kts | 195° |
| 2026-04-07 15:39 | 50.04558 | 8.56893 | 366 ft | 12 kts | 194° |
| 2026-04-07 15:39 | 50.04442 | 8.56854 | 371 ft | 21 kts | 189° |
| 2026-04-07 15:39 | 50.04318 | 8.56823 | 369 ft | 14 kts | 191° |
| 2026-04-07 15:40 | 50.04251 | 8.56765 | 368 ft | 10 kts | 232° |
| 2026-04-07 15:40 | 50.04238 | 8.56727 | 365 ft | 0 kts | 245° |
| 2026-04-07 15:40 | 50.04228 | 8.56684 | 366 ft | 18 kts | 250° |
| 2026-04-07 15:40 | 50.04155 | 8.56388 | 365 ft | 24 kts | 249° |
| 2026-04-07 15:41 | 50.04104 | 8.56192 | 364 ft | 10 kts | 249° |
| 2026-04-07 15:41 | 50.04099 | 8.56171 | 364 ft | 1 kts | 252° |
| 2026-04-07 15:41 | 50.04068 | 8.56031 | 362 ft | 25 kts | 251° |
| 2026-04-07 15:41 | 50.03992 | 8.55706 | 362 ft | 28 kts | 249° |
| 2026-04-07 15:42 | 50.03924 | 8.55433 | 359 ft | 27 kts | 248° |
| 2026-04-07 15:42 | 50.03860 | 8.55164 | 361 ft | 26 kts | 250° |
| 2026-04-07 15:42 | 50.03752 | 8.54709 | 359 ft | 7 kts | 250° |
| 2026-04-07 15:43 | 50.03746 | 8.54684 | 360 ft | 4 kts | 250° |
| 2026-04-07 15:43 | 50.03722 | 8.54580 | 359 ft | 17 kts | 250° |
| 2026-04-07 15:43 | 50.03673 | 8.54384 | 356 ft | 10 kts | 251° |
| 2026-04-07 15:43 | 50.03660 | 8.54344 | 355 ft | 3 kts | 239° |
| 2026-04-07 15:44 | 50.03645 | 8.54322 | 356 ft | 1 kts | 213° |
| 2026-04-07 15:44 | 50.03630 | 8.54312 | 350 ft | 3 kts | 199° |
| 2026-04-07 15:44 | 50.03609 | 8.54313 | 356 ft | 4 kts | 162° |
| 2026-04-07 15:44 | 50.03596 | 8.54320 | 355 ft | 0 kts | 161° |
| 2026-04-07 15:46 | 50.03568 | 8.54335 | 354 ft | 8 kts | 161° |
| 2026-04-07 15:46 | 50.03520 | 8.54371 | 359 ft | 6 kts | 139° |
| 2026-04-07 15:47 | 50.03501 | 8.54434 | 356 ft | 6 kts | 98° |
| 2026-04-07 15:47 | 50.03510 | 8.54494 | 357 ft | 6 kts | 73° |
| 2026-04-07 15:47 | 50.03526 | 8.54572 | 357 ft | 17 kts | 73° |
| 2026-04-07 15:47 | 50.03583 | 8.54834 | 357 ft | 62 kts | 68° |
| 2026-04-07 15:48 | 50.03821 | 8.55800 | 363 ft | 128 kts | 70° |
| 2026-04-07 15:48 | 50.04199 | 8.57370 | 529 ft | 166 kts | 66° |
| 2026-04-07 15:48 | 50.04776 | 8.59516 | 1673 ft | 158 kts | 64° |
| 2026-04-07 15:48 | 50.05256 | 8.61083 | 2003 ft | 170 kts | 64° |
| 2026-04-07 15:49 | 50.05645 | 8.62877 | 2253 ft | 180 kts | 75° |
| 2026-04-07 15:49 | 50.05950 | 8.64869 | 2413 ft | 197 kts | 72° |
| 2026-04-07 15:49 | 50.06241 | 8.66269 | 2618 ft | 204 kts | 53° |
| 2026-04-07 15:49 | 50.06755 | 8.68328 | 2950 ft | 208 kts | 67° |
| 2026-04-07 15:50 | 50.07306 | 8.70372 | 3197 ft | 200 kts | 65° |
| 2026-04-07 15:50 | 50.08081 | 8.72265 | 3301 ft | 222 kts | 38° |
| 2026-04-07 15:50 | 50.09529 | 8.73340 | 3710 ft | 240 kts | 18° |
| 2026-04-07 15:50 | 50.11146 | 8.74140 | 4424 ft | 247 kts | 19° |
| 2026-04-07 15:51 | 50.12791 | 8.75050 | 5120 ft | 253 kts | 21° |
| 2026-04-07 15:51 | 50.14437 | 8.76053 | 5759 ft | 249 kts | 22° |
| 2026-04-07 15:51 | 50.16044 | 8.77078 | 6001 ft | 256 kts | 22° |
| 2026-04-07 15:51 | 50.17710 | 8.78173 | 6511 ft | 262 kts | 22° |
| 2026-04-07 15:52 | 50.19385 | 8.79290 | 7115 ft | 263 kts | 22° |
| 2026-04-07 15:52 | 50.21060 | 8.80405 | 7687 ft | 266 kts | 22° |
| 2026-04-07 15:52 | 50.22762 | 8.81551 | 8298 ft | 269 kts | 22° |
| 2026-04-07 15:52 | 50.24524 | 8.82567 | 8894 ft | 270 kts | 12° |
| 2026-04-07 15:53 | 50.26397 | 8.82696 | 9496 ft | 272 kts | 349° |
| 2026-04-07 15:53 | 50.28143 | 8.81617 | 10096 ft | 275 kts | 326° |
| 2026-04-07 15:53 | 50.29494 | 8.79474 | 10557 ft | 285 kts | 304° |
| 2026-04-07 15:53 | 50.30187 | 8.76492 | 10794 ft | 304 kts | 278° |
| 2026-04-07 15:54 | 50.30382 | 8.73126 | 11057 ft | 317 kts | 283° |
| 2026-04-07 15:54 | 50.31025 | 8.69493 | 11338 ft | 330 kts | 291° |
| 2026-04-07 15:54 | 50.31720 | 8.66338 | 11549 ft | 343 kts | 291° |
| 2026-04-07 15:54 | 50.32492 | 8.62735 | 11811 ft | 355 kts | 290° |
| 2026-04-07 15:55 | 50.33294 | 8.59019 | 12100 ft | 367 kts | 291° |
| 2026-04-07 15:55 | 50.34141 | 8.55189 | 12405 ft | 376 kts | 291° |
| 2026-04-07 15:55 | 50.35011 | 8.51302 | 12895 ft | 380 kts | 291° |
| 2026-04-07 15:55 | 50.35858 | 8.47381 | 13532 ft | 380 kts | 291° |
| 2026-04-07 15:56 | 50.36684 | 8.43442 | 14094 ft | 382 kts | 290° |
| 2026-04-07 15:56 | 50.37443 | 8.39422 | 14442 ft | 388 kts | 284° |
| 2026-04-07 15:56 | 50.38032 | 8.35301 | 15070 ft | 386 kts | 278° |
| 2026-04-07 15:56 | 50.38113 | 8.31170 | 15711 ft | 388 kts | 264° |
| 2026-04-07 15:57 | 50.37310 | 8.27065 | 15885 ft | 405 kts | 246° |
| 2026-04-07 15:57 | 50.36082 | 8.23066 | 16316 ft | 408 kts | 248° |
| 2026-04-07 15:57 | 50.34990 | 8.18980 | 16893 ft | 408 kts | 251° |
| 2026-04-07 15:57 | 50.34011 | 8.14799 | 17372 ft | 411 kts | 253° |
| 2026-04-07 15:58 | 50.33079 | 8.10558 | 17887 ft | 413 kts | 253° |
| 2026-04-07 15:58 | 50.32166 | 8.06283 | 18411 ft | 415 kts | 254° |
| 2026-04-07 15:58 | 50.31266 | 8.01976 | 18876 ft | 417 kts | 254° |
| 2026-04-07 15:58 | 50.30399 | 7.97637 | 19327 ft | 419 kts | 257° |
| 2026-04-07 15:59 | 50.29914 | 7.93154 | 19761 ft | 418 kts | 270° |
| 2026-04-07 15:59 | 50.30100 | 7.88699 | 20215 ft | 416 kts | 283° |
| 2026-04-07 15:59 | 50.30955 | 7.84390 | 20700 ft | 415 kts | 295° |
| 2026-04-07 15:59 | 50.32130 | 7.80259 | 21158 ft | 417 kts | 296° |
| 2026-04-07 16:00 | 50.33352 | 7.76125 | 21652 ft | 419 kts | 296° |
| 2026-04-07 16:00 | 50.34674 | 7.72055 | 22113 ft | 420 kts | 302° |
| 2026-04-07 16:00 | 50.36401 | 7.68379 | 22578 ft | 420 kts | 314° |
| 2026-04-07 16:00 | 50.38584 | 7.65336 | 23050 ft | 421 kts | 326° |
| 2026-04-07 16:01 | 50.41123 | 7.63051 | 23509 ft | 423 kts | 335° |
| 2026-04-07 16:01 | 50.43821 | 7.61157 | 23947 ft | 425 kts | 336° |
| 2026-04-07 16:01 | 50.46543 | 7.59313 | 24320 ft | 428 kts | 336° |
| 2026-04-07 16:01 | 50.49286 | 7.57445 | 24669 ft | 431 kts | 336° |
| 2026-04-07 16:02 | 50.52003 | 7.55584 | 25029 ft | 434 kts | 336° |
| 2026-04-07 16:02 | 50.54768 | 7.53639 | 25385 ft | 437 kts | 334° |
| 2026-04-07 16:02 | 50.57423 | 7.51305 | 25752 ft | 439 kts | 328° |
| 2026-04-07 16:02 | 50.60610 | 7.48091 | 26186 ft | 442 kts | 327° |
| 2026-04-07 16:03 | 50.63223 | 7.45408 | 26547 ft | 445 kts | 327° |
| 2026-04-07 16:03 | 50.65822 | 7.42736 | 26906 ft | 448 kts | 327° |
| 2026-04-07 16:03 | 50.68401 | 7.40085 | 27231 ft | 450 kts | 327° |
| 2026-04-07 16:03 | 50.70990 | 7.37323 | 27564 ft | 453 kts | 323° |
| 2026-04-07 16:04 | 50.73398 | 7.34054 | 27904 ft | 455 kts | 314° |
| 2026-04-07 16:04 | 50.75444 | 7.30226 | 28245 ft | 458 kts | 306° |
| 2026-04-07 16:04 | 50.77112 | 7.25925 | 28569 ft | 461 kts | 300° |
| 2026-04-07 16:04 | 50.78626 | 7.21464 | 28878 ft | 464 kts | 298° |
| 2026-04-07 16:05 | 50.80099 | 7.16923 | 29207 ft | 467 kts | 297° |
| 2026-04-07 16:05 | 50.81571 | 7.12304 | 29506 ft | 469 kts | 297° |
| 2026-04-07 16:05 | 50.83021 | 7.07740 | 29762 ft | 471 kts | 297° |
| 2026-04-07 16:05 | 50.84499 | 7.03104 | 30044 ft | 474 kts | 297° |
| 2026-04-07 16:06 | 50.85968 | 6.98520 | 30325 ft | 476 kts | 297° |
| 2026-04-07 16:06 | 50.87494 | 6.93775 | 30574 ft | 478 kts | 297° |
| 2026-04-07 16:06 | 50.89007 | 6.89081 | 30897 ft | 477 kts | 297° |
| 2026-04-07 16:06 | 50.90508 | 6.84406 | 31261 ft | 475 kts | 297° |
| 2026-04-07 16:07 | 50.92000 | 6.79748 | 31608 ft | 473 kts | 297° |
| 2026-04-07 16:07 | 50.93487 | 6.75104 | 31934 ft | 472 kts | 297° |
| 2026-04-07 16:07 | 50.94971 | 6.70457 | 32238 ft | 471 kts | 297° |
| 2026-04-07 16:07 | 50.96446 | 6.65829 | 32558 ft | 470 kts | 296° |
| 2026-04-07 16:08 | 50.97899 | 6.61260 | 32878 ft | 469 kts | 296° |
| 2026-04-07 16:08 | 50.99363 | 6.56653 | 33192 ft | 467 kts | 296° |
| 2026-04-07 16:08 | 51.00822 | 6.52052 | 33502 ft | 466 kts | 296° |
| 2026-04-07 16:08 | 51.02279 | 6.47451 | 33789 ft | 465 kts | 296° |
| 2026-04-07 16:09 | 51.03728 | 6.42865 | 34044 ft | 465 kts | 296° |
| 2026-04-07 16:09 | 51.05172 | 6.38283 | 34282 ft | 465 kts | 296° |
| 2026-04-07 16:09 | 51.08083 | 6.29024 | 34299 ft | 471 kts | 296° |
| 2026-04-07 16:10 | 51.11000 | 6.19708 | 34302 ft | 470 kts | 296° |
| 2026-04-07 16:10 | 51.14376 | 6.07341 | 34304 ft | 469 kts | 286° |
| 2026-04-07 16:11 | 51.22249 | 5.77677 | 34307 ft | 472 kts | 314° |
| 2026-04-07 16:11 | 51.27003 | 5.70417 | 34313 ft | 474 kts | 316° |
| 2026-04-07 16:12 | 51.31885 | 5.63327 | 34317 ft | 474 kts | 316° |
| 2026-04-07 16:12 | 51.36754 | 5.56216 | 34319 ft | 474 kts | 316° |
| 2026-04-07 16:13 | 51.41565 | 5.49105 | 34316 ft | 474 kts | 315° |
| 2026-04-07 16:13 | 51.46398 | 5.41911 | 34320 ft | 474 kts | 315° |
| 2026-04-07 16:14 | 51.51220 | 5.34707 | 34316 ft | 474 kts | 315° |
| 2026-04-07 16:14 | 51.56033 | 5.27498 | 34314 ft | 474 kts | 315° |
| 2026-04-07 16:15 | 51.60850 | 5.20265 | 34316 ft | 474 kts | 315° |
| 2026-04-07 16:15 | 51.65663 | 5.13016 | 34316 ft | 474 kts | 315° |
| 2026-04-07 16:16 | 51.70438 | 5.05801 | 34316 ft | 474 kts | 315° |
| 2026-04-07 16:16 | 51.75247 | 4.98513 | 34319 ft | 474 kts | 315° |
| 2026-04-07 16:17 | 51.80045 | 4.91219 | 34314 ft | 474 kts | 315° |
| 2026-04-07 16:17 | 51.84840 | 4.83905 | 34316 ft | 474 kts | 315° |
| 2026-04-07 16:18 | 51.89632 | 4.76573 | 34319 ft | 474 kts | 315° |
| 2026-04-07 16:18 | 51.94383 | 4.69284 | 34320 ft | 474 kts | 315° |
| 2026-04-07 16:19 | 51.99031 | 4.62130 | 34320 ft | 474 kts | 315° |
| 2026-04-07 16:19 | 52.03810 | 4.54754 | 34320 ft | 474 kts | 315° |
| 2026-04-07 16:20 | 52.18389 | 4.32104 | 34318 ft | 475 kts | 314° |
| 2026-04-07 16:20 | 52.34219 | 4.07267 | 34315 ft | 475 kts | 314° |
| 2026-04-07 16:21 | 52.53228 | 3.77094 | 34324 ft | 475 kts | 314° |
| 2026-04-07 16:21 | 52.72137 | 3.46695 | 34326 ft | 475 kts | 313° |
| 2026-04-07 16:22 | 52.90453 | 3.15257 | 34330 ft | 470 kts | 298° |
| 2026-04-07 16:22 | 52.94432 | 2.94914 | 34333 ft | 465 kts | 281° |
| 2026-04-07 16:22 | 52.97081 | 2.73952 | 34330 ft | 465 kts | 280° |
| 2026-04-07 16:23 | 53.02401 | 2.32220 | 34329 ft | 466 kts | 280° |
| 2026-04-07 16:23 | 53.07630 | 1.90024 | 34323 ft | 466 kts | 279° |
| 2026-04-07 16:24 | 53.12711 | 1.47583 | 34311 ft | 467 kts | 279° |
| 2026-04-07 16:24 | 53.17638 | 1.05122 | 34294 ft | 467 kts | 279° |
| 2026-04-07 16:25 | 53.22398 | 0.62709 | 34277 ft | 465 kts | 279° |
| 2026-04-07 16:25 | 53.26993 | 0.20384 | 34262 ft | 464 kts | 278° |
| 2026-04-07 16:26 | 53.31432 | -0.22035 | 34240 ft | 464 kts | 278° |
| 2026-04-07 16:26 | 53.35724 | -0.64612 | 34233 ft | 464 kts | 277° |
| 2026-04-07 16:27 | 53.39885 | -1.07289 | 34217 ft | 463 kts | 277° |
| 2026-04-07 16:27 | 53.43855 | -1.49923 | 34213 ft | 462 kts | 276° |
| 2026-04-07 16:28 | 53.47651 | -1.92199 | 34181 ft | 462 kts | 276° |
| 2026-04-07 16:28 | 53.51314 | -2.34909 | 34182 ft | 462 kts | 275° |
| 2026-04-07 16:29 | 53.54829 | -2.77787 | 34141 ft | 463 kts | 274° |
| 2026-04-07 16:29 | 53.58191 | -3.20643 | 34133 ft | 463 kts | 274° |
| 2026-04-07 16:30 | 53.61397 | -3.63478 | 34120 ft | 464 kts | 273° |
| 2026-04-07 16:30 | 53.63267 | -4.06804 | 34094 ft | 464 kts | 269° |
| 2026-04-07 16:31 | 53.64891 | -4.50248 | 34087 ft | 465 kts | 269° |
| 2026-04-07 16:31 | 53.66360 | -4.93870 | 34088 ft | 466 kts | 268° |
| 2026-04-07 16:32 | 53.67665 | -5.37513 | 34087 ft | 466 kts | 268° |
| 2026-04-07 16:32 | 53.69610 | -5.58921 | 34083 ft | 476 kts | 281° |
| 2026-04-07 16:32 | 53.73562 | -5.80581 | 34087 ft | 477 kts | 282° |
| 2026-04-07 16:33 | 53.81197 | -6.23186 | 34082 ft | 477 kts | 281° |
| 2026-04-07 16:33 | 53.84955 | -6.44580 | 34968 ft | 468 kts | 281° |
| 2026-04-07 16:33 | 53.88615 | -6.65707 | 35652 ft | 467 kts | 281° |
| 2026-04-07 16:34 | 53.92246 | -6.86907 | 36065 ft | 472 kts | 281° |
| 2026-04-07 16:34 | 53.95882 | -7.08369 | 36059 ft | 473 kts | 280° |
| 2026-04-07 16:34 | 54.03022 | -7.51327 | 36048 ft | 472 kts | 279° |
| 2026-04-07 16:35 | 54.09953 | -7.94087 | 36040 ft | 471 kts | 279° |
| 2026-04-07 16:35 | 54.16777 | -8.37279 | 36021 ft | 471 kts | 278° |
| 2026-04-07 16:36 | 54.23441 | -8.80591 | 36022 ft | 472 kts | 278° |
| 2026-04-07 16:36 | 54.26949 | -9.03846 | 36020 ft | 471 kts | 277° |
| 2026-04-07 16:37 | 54.28558 | -9.14634 | 36022 ft | 471 kts | 277° |
| 2026-04-07 16:37 | 54.30169 | -9.25506 | 36021 ft | 471 kts | 277° |
| 2026-04-07 16:38 | 54.31771 | -9.36391 | 36024 ft | 471 kts | 277° |
| 2026-04-07 16:38 | 54.35851 | -9.64465 | 36032 ft | 471 kts | 277° |
| 2026-04-07 16:39 | 54.42012 | -10.07844 | 36047 ft | 471 kts | 276° |
| 2026-04-07 16:39 | 54.48057 | -10.51646 | 36051 ft | 471 kts | 276° |
| 2026-04-07 16:40 | 54.53957 | -10.95675 | 36064 ft | 472 kts | 275° |
| 2026-04-07 16:40 | 54.59687 | -11.39752 | 36074 ft | 471 kts | 275° |
| 2026-04-07 16:41 | 54.65251 | -11.83911 | 36078 ft | 470 kts | 274° |
| 2026-04-07 16:41 | 54.70638 | -12.28084 | 36078 ft | 470 kts | 274° |
| 2026-04-07 16:42 | 54.75842 | -12.72145 | 36081 ft | 471 kts | 274° |
| 2026-04-07 16:42 | 54.80927 | -13.16704 | 36083 ft | 471 kts | 273° |
| 2026-04-07 16:43 | 54.85839 | -13.61275 | 36084 ft | 471 kts | 273° |
| 2026-04-07 16:43 | 54.90593 | -14.06015 | 36088 ft | 470 kts | 272° |
| 2026-04-07 16:44 | 54.95142 | -14.50461 | 36082 ft | 470 kts | 272° |
| 2026-04-07 16:44 | 54.99570 | -14.95366 | 36076 ft | 471 kts | 272° |
| 2026-04-07 16:45 | 55.03859 | -15.17355 | 36085 ft | 484 kts | 283° |
| 2026-04-07 16:45 | 55.08785 | -15.39208 | 36084 ft | 484 kts | 283° |
| 2026-04-07 16:45 | 55.18450 | -15.83245 | 36073 ft | 485 kts | 282° |
| 2026-04-07 16:46 | 55.27893 | -16.27223 | 36069 ft | 487 kts | 282° |
| 2026-04-07 16:46 | 55.37288 | -16.71934 | 36059 ft | 487 kts | 281° |
| 2026-04-07 16:47 | 55.46502 | -17.16775 | 36054 ft | 487 kts | 281° |
| 2026-04-07 16:47 | 55.55542 | -17.61781 | 36042 ft | 486 kts | 281° |
| 2026-04-07 16:48 | 55.64399 | -18.06906 | 36033 ft | 486 kts | 280° |
| 2026-04-07 16:49 | 55.77371 | -18.74960 | 36021 ft | 489 kts | 280° |
| 2026-04-07 16:49 | 55.85885 | -19.20986 | 36001 ft | 490 kts | 281° |
| 2026-04-07 16:50 | 55.94209 | -19.67130 | 35982 ft | 489 kts | 280° |
| 2026-04-07 16:50 | 56.02100 | -20.13545 | 35963 ft | 484 kts | 277° |
| 2026-04-07 16:51 | 56.08469 | -20.60001 | 35946 ft | 484 kts | 277° |
| 2026-04-07 16:51 | 56.14856 | -21.06882 | 35929 ft | 483 kts | 277° |
| 2026-04-07 16:52 | 56.21030 | -21.53651 | 35909 ft | 480 kts | 277° |
| 2026-04-07 16:52 | 56.26999 | -22.00410 | 35885 ft | 479 kts | 277° |
| 2026-04-07 16:53 | 56.28923 | -22.15681 | 35886 ft | 478 kts | 277° |
| 2026-04-07 16:53 | 56.30384 | -22.27390 | 35863 ft | 479 kts | 276° |
| 2026-04-07 16:54 | 56.31806 | -22.39103 | 35875 ft | 479 kts | 277° |
| 2026-04-07 16:54 | 56.33224 | -22.50815 | 35862 ft | 479 kts | 276° |
| 2026-04-07 16:55 | 56.39274 | -22.80946 | 35833 ft | 496 kts | 296° |
| 2026-04-07 16:55 | 56.53879 | -23.23229 | 35799 ft | 494 kts | 295° |
| 2026-04-07 16:56 | 56.65003 | -23.68067 | 35773 ft | 485 kts | 284° |
| 2026-04-07 16:56 | 56.71459 | -24.15211 | 35741 ft | 479 kts | 277° |
| 2026-04-07 16:57 | 56.76612 | -24.62720 | 35711 ft | 477 kts | 277° |
| 2026-04-07 16:57 | 56.80273 | -25.10171 | 35676 ft | 475 kts | 273° |
| 2026-04-07 16:58 | 56.82743 | -25.58196 | 35637 ft | 473 kts | 268° |
| 2026-04-07 16:58 | 56.80357 | -26.05771 | 35605 ft | 470 kts | 261° |
| 2026-04-07 16:59 | 56.77142 | -26.52961 | 35566 ft | 468 kts | 261° |
| 2026-04-07 16:59 | 56.77805 | -26.99718 | 35519 ft | 471 kts | 278° |
| 2026-04-07 17:00 | 56.81933 | -27.46743 | 35489 ft | 468 kts | 276° |
| 2026-04-07 17:00 | 56.85671 | -27.93588 | 35448 ft | 465 kts | 276° |
| 2026-04-07 17:01 | 56.89220 | -28.40327 | 35402 ft | 462 kts | 276° |
| 2026-04-07 17:01 | 56.92561 | -28.86467 | 35367 ft | 459 kts | 276° |
| 2026-04-07 17:02 | 56.95739 | -29.32792 | 35328 ft | 458 kts | 277° |
| 2026-04-07 17:02 | 56.98711 | -29.79096 | 35292 ft | 456 kts | 277° |
| 2026-04-07 17:03 | 56.99799 | -29.97062 | 35275 ft | 456 kts | 273° |
| 2026-04-07 17:03 | 56.99532 | -30.08610 | 35262 ft | 458 kts | 266° |
| 2026-04-07 17:04 | 56.98861 | -30.20226 | 34653 ft | 457 kts | 258° |
| 2026-04-07 17:04 | 56.98516 | -30.25998 | 35271 ft | 456 kts | 265° |
| 2026-04-07 17:04 | 56.98159 | -30.31778 | 35245 ft | 457 kts | 265° |
| 2026-04-07 17:05 | 56.98498 | -30.43300 | 35232 ft | 453 kts | 284° |
| 2026-04-07 17:05 | 57.04318 | -30.63274 | 35220 ft | 455 kts | 300° |
| 2026-04-07 17:05 | 57.09309 | -30.84532 | 35204 ft | 454 kts | 281° |
| 2026-04-07 17:06 | 57.09037 | -31.07664 | 35192 ft | 457 kts | 265° |
| 2026-04-07 17:06 | 57.05781 | -31.54051 | 35162 ft | 457 kts | 265° |
| 2026-04-07 17:07 | 57.02519 | -32.00241 | 35157 ft | 456 kts | 265° |
| 2026-04-07 17:07 | 56.99072 | -32.46108 | 35140 ft | 456 kts | 264° |
| 2026-04-07 17:08 | 56.95459 | -32.92172 | 35137 ft | 457 kts | 264° |
| 2026-04-07 17:08 | 56.91647 | -33.38299 | 35121 ft | 457 kts | 264° |
| 2026-04-07 17:09 | 56.85454 | -33.83094 | 35118 ft | 471 kts | 236° |
| 2026-04-07 17:09 | 56.68693 | -34.19376 | 35123 ft | 460 kts | 255° |
| 2026-04-07 17:10 | 56.64172 | -34.64503 | 35121 ft | 457 kts | 263° |
| 2026-04-07 17:10 | 56.59705 | -35.09851 | 35107 ft | 455 kts | 262° |
| 2026-04-07 17:11 | 56.55105 | -35.54815 | 35102 ft | 452 kts | 262° |
| 2026-04-07 17:11 | 56.50364 | -35.99466 | 35089 ft | 450 kts | 262° |
| 2026-04-07 17:12 | 56.45530 | -36.43409 | 35087 ft | 447 kts | 261° |
| 2026-04-07 17:12 | 56.40523 | -36.87399 | 35075 ft | 446 kts | 261° |
| 2026-04-07 17:13 | 56.37545 | -37.12885 | 35084 ft | 450 kts | 255° |
| 2026-04-07 17:13 | 56.33406 | -37.47531 | 35072 ft | 460 kts | 255° |
| 2026-04-07 17:14 | 56.32047 | -37.58717 | 35073 ft | 460 kts | 255° |
| 2026-04-07 17:14 | 56.26683 | -38.01983 | 35069 ft | 460 kts | 255° |
| 2026-04-07 17:15 | 56.20946 | -38.46856 | 35069 ft | 461 kts | 254° |
| 2026-04-07 17:15 | 56.17485 | -38.73270 | 35071 ft | 461 kts | 254° |
| 2026-04-07 17:16 | 56.15999 | -38.84467 | 35071 ft | 461 kts | 254° |
| 2026-04-07 17:16 | 56.14470 | -38.95898 | 35073 ft | 461 kts | 254° |
| 2026-04-07 17:17 | 56.10828 | -39.22784 | 35072 ft | 461 kts | 254° |
| 2026-04-07 17:17 | 56.04643 | -39.67380 | 35080 ft | 462 kts | 253° |
| 2026-04-07 17:18 | 55.99144 | -40.12113 | 35721 ft | 459 kts | 261° |
| 2026-04-07 17:18 | 55.97958 | -40.34543 | 36242 ft | 459 kts | 261° |
| 2026-04-07 17:18 | 55.96591 | -40.57182 | 36717 ft | 459 kts | 260° |
| 2026-04-07 17:18 | 55.95157 | -40.79832 | 37097 ft | 460 kts | 260° |
| 2026-04-07 17:19 | 55.93671 | -41.02673 | 37105 ft | 465 kts | 260° |
| 2026-04-07 17:19 | 55.90564 | -41.48493 | 37096 ft | 466 kts | 259° |
| 2026-04-07 17:20 | 55.87274 | -41.94384 | 37106 ft | 467 kts | 259° |
| 2026-04-07 17:20 | 55.83837 | -42.39906 | 37115 ft | 467 kts | 259° |
| 2026-04-07 17:21 | 55.80200 | -42.85731 | 37119 ft | 468 kts | 258° |
| 2026-04-07 17:21 | 55.76392 | -43.31494 | 37117 ft | 468 kts | 258° |
| 2026-04-07 17:22 | 55.72409 | -43.77210 | 37118 ft | 469 kts | 258° |
| 2026-04-07 17:22 | 55.68284 | -44.22542 | 37119 ft | 469 kts | 258° |
| 2026-04-07 17:23 | 55.63959 | -44.68133 | 37116 ft | 469 kts | 257° |
| 2026-04-07 17:23 | 55.59461 | -45.13652 | 37116 ft | 469 kts | 257° |
| 2026-04-07 17:24 | 55.54809 | -45.58922 | 37119 ft | 469 kts | 257° |
| 2026-04-07 17:24 | 55.50015 | -46.03870 | 37128 ft | 468 kts | 256° |
| 2026-04-07 17:25 | 55.45035 | -46.48894 | 37135 ft | 468 kts | 256° |
| 2026-04-07 17:25 | 55.39895 | -46.93768 | 37158 ft | 467 kts | 256° |
| 2026-04-07 17:26 | 55.34606 | -47.38397 | 37186 ft | 465 kts | 255° |
| 2026-04-07 17:26 | 55.29185 | -47.82583 | 37217 ft | 462 kts | 255° |
| 2026-04-07 17:27 | 55.23682 | -48.26160 | 37249 ft | 460 kts | 255° |
| 2026-04-07 17:27 | 55.18003 | -48.69793 | 37284 ft | 459 kts | 255° |
| 2026-04-07 17:28 | 55.12190 | -49.13157 | 37318 ft | 458 kts | 254° |
| 2026-04-07 17:28 | 55.06224 | -49.56142 | 37354 ft | 458 kts | 254° |
| 2026-04-07 17:29 | 55.00045 | -49.99218 | 37390 ft | 457 kts | 249° |
| 2026-04-07 17:29 | 54.90308 | -50.39966 | 37427 ft | 456 kts | 245° |
| 2026-04-07 17:30 | 54.80323 | -50.80390 | 37466 ft | 455 kts | 245° |
| 2026-04-07 17:30 | 54.70228 | -51.20518 | 37507 ft | 455 kts | 245° |
| 2026-04-07 17:31 | 54.60054 | -51.60240 | 37539 ft | 455 kts | 244° |
| 2026-04-07 17:31 | 54.49702 | -51.99948 | 37577 ft | 454 kts | 244° |
| 2026-04-07 17:32 | 54.39230 | -52.39416 | 37609 ft | 454 kts | 244° |
| 2026-04-07 17:32 | 54.28633 | -52.78672 | 37650 ft | 453 kts | 243° |
| 2026-04-07 17:33 | 54.17945 | -53.17599 | 37674 ft | 452 kts | 243° |
| 2026-04-07 17:33 | 54.07203 | -53.56068 | 37697 ft | 452 kts | 243° |
| 2026-04-07 17:34 | 53.96268 | -53.94587 | 37720 ft | 452 kts | 242° |
| 2026-04-07 17:34 | 53.85241 | -54.32799 | 37749 ft | 451 kts | 242° |
| 2026-04-07 17:35 | 53.74086 | -54.70832 | 37765 ft | 451 kts | 242° |
| 2026-04-07 17:35 | 53.62887 | -55.08414 | 37779 ft | 452 kts | 242° |
| 2026-04-07 17:36 | 53.51470 | -55.46123 | 37793 ft | 453 kts | 241° |
| 2026-04-07 17:36 | 53.39904 | -55.83731 | 37785 ft | 453 kts | 241° |
| 2026-04-07 17:37 | 53.28217 | -56.21144 | 37775 ft | 453 kts | 241° |
| 2026-04-07 17:37 | 53.16450 | -56.58238 | 37777 ft | 452 kts | 241° |
| 2026-04-07 17:38 | 53.07075 | -56.96591 | 37794 ft | 454 kts | 253° |
| 2026-04-07 17:38 | 53.00640 | -57.37132 | 37828 ft | 453 kts | 253° |
| 2026-04-07 17:39 | 52.94036 | -57.77386 | 37847 ft | 452 kts | 252° |
| 2026-04-07 17:39 | 52.87316 | -58.17418 | 37865 ft | 450 kts | 252° |
| 2026-04-07 17:40 | 52.80521 | -58.56973 | 37885 ft | 450 kts | 252° |
| 2026-04-07 17:40 | 52.73554 | -58.96641 | 37905 ft | 449 kts | 251° |
| 2026-04-07 17:41 | 52.66453 | -59.36186 | 37925 ft | 450 kts | 251° |
| 2026-04-07 17:41 | 52.59228 | -59.75570 | 37942 ft | 449 kts | 251° |
| 2026-04-07 17:42 | 52.51880 | -60.14781 | 37950 ft | 449 kts | 251° |
| 2026-04-07 17:42 | 52.44452 | -60.53609 | 37973 ft | 449 kts | 251° |
| 2026-04-07 17:43 | 52.36837 | -60.92609 | 37982 ft | 449 kts | 250° |
| 2026-04-07 17:43 | 52.29113 | -61.31381 | 37993 ft | 448 kts | 250° |
| 2026-04-07 17:44 | 52.21328 | -61.69694 | 38001 ft | 447 kts | 250° |
| 2026-04-07 17:44 | 52.13379 | -62.08066 | 38016 ft | 447 kts | 250° |
| 2026-04-07 17:45 | 52.05292 | -62.46364 | 38006 ft | 448 kts | 250° |
| 2026-04-07 17:45 | 51.97071 | -62.84572 | 38018 ft | 449 kts | 249° |
| 2026-04-07 17:46 | 51.88698 | -63.22772 | 38051 ft | 450 kts | 249° |
| 2026-04-07 17:46 | 51.80250 | -63.60611 | 38046 ft | 451 kts | 249° |
| 2026-04-07 17:47 | 51.71618 | -63.98584 | 38057 ft | 451 kts | 249° |
| 2026-04-07 17:47 | 51.62860 | -64.36432 | 38072 ft | 451 kts | 249° |
| 2026-04-07 17:48 | 51.54038 | -64.73885 | 38089 ft | 450 kts | 249° |
| 2026-04-07 17:48 | 51.45069 | -65.11314 | 38098 ft | 449 kts | 248° |
| 2026-04-07 17:49 | 51.35979 | -65.48607 | 38111 ft | 449 kts | 248° |
| 2026-04-07 17:49 | 51.26796 | -65.85646 | 38129 ft | 447 kts | 248° |
| 2026-04-07 17:50 | 51.17525 | -66.22427 | 38132 ft | 447 kts | 248° |
| 2026-04-07 17:50 | 51.08199 | -66.58830 | 38134 ft | 447 kts | 248° |
| 2026-04-07 17:51 | 50.98700 | -66.95311 | 38163 ft | 447 kts | 248° |
| 2026-04-07 17:51 | 50.89069 | -67.31716 | 38182 ft | 448 kts | 247° |
| 2026-04-07 17:52 | 50.79319 | -67.67993 | 38197 ft | 448 kts | 247° |
| 2026-04-07 17:52 | 50.69503 | -68.03948 | 38217 ft | 449 kts | 247° |
| 2026-04-07 17:53 | 50.59514 | -68.39978 | 38227 ft | 449 kts | 247° |
| 2026-04-07 17:53 | 50.44312 | -68.93777 | 38244 ft | 449 kts | 246° |
| 2026-04-07 17:54 | 50.34034 | -69.29471 | 38244 ft | 450 kts | 246° |
| 2026-04-07 17:54 | 50.23691 | -69.64861 | 38268 ft | 451 kts | 246° |
| 2026-04-07 17:55 | 50.13144 | -70.00422 | 38263 ft | 451 kts | 246° |
| 2026-04-07 17:55 | 50.02493 | -70.35813 | 38267 ft | 451 kts | 246° |
| 2026-04-07 17:56 | 49.91742 | -70.71023 | 38268 ft | 451 kts | 246° |
| 2026-04-07 17:56 | 49.80919 | -71.05966 | 38278 ft | 451 kts | 245° |
| 2026-04-07 17:57 | 49.70014 | -71.40683 | 38286 ft | 451 kts | 245° |
| 2026-04-07 17:57 | 49.58945 | -71.75431 | 38306 ft | 451 kts | 245° |
| 2026-04-07 17:58 | 49.47786 | -72.09979 | 38331 ft | 451 kts | 245° |
| 2026-04-07 17:58 | 49.36553 | -72.44282 | 38351 ft | 450 kts | 245° |
| 2026-04-07 17:59 | 49.25245 | -72.78355 | 38352 ft | 450 kts | 245° |
| 2026-04-07 17:59 | 49.08778 | -73.06272 | 38346 ft | 470 kts | 208° |
| 2026-04-07 18:00 | 48.84774 | -73.22268 | 38342 ft | 471 kts | 208° |
| 2026-04-07 18:00 | 48.60765 | -73.38202 | 38343 ft | 471 kts | 209° |
| 2026-04-07 18:01 | 48.36926 | -73.53860 | 38333 ft | 470 kts | 209° |
| 2026-04-07 18:01 | 48.12923 | -73.69465 | 38330 ft | 469 kts | 209° |
| 2026-04-07 18:02 | 47.88946 | -73.84894 | 38322 ft | 469 kts | 209° |
| 2026-04-07 18:02 | 47.77453 | -73.92234 | 38325 ft | 469 kts | 209° |
| 2026-04-07 18:03 | 47.71455 | -73.96051 | 38324 ft | 469 kts | 209° |
| 2026-04-07 18:03 | 47.65495 | -73.99835 | 38320 ft | 469 kts | 209° |
| 2026-04-07 18:04 | 47.59500 | -74.03631 | 38322 ft | 469 kts | 209° |
| 2026-04-07 18:04 | 47.53500 | -74.07421 | 38137 ft | 468 kts | 209° |
| 2026-04-07 18:05 | 47.50524 | -74.09295 | 37886 ft | 464 kts | 209° |
| 2026-04-07 18:05 | 47.47558 | -74.11161 | 37645 ft | 461 kts | 209° |
| 2026-04-07 18:05 | 47.44611 | -74.13015 | 36940 ft | 462 kts | 209° |
| 2026-04-07 18:05 | 47.41682 | -74.14858 | 36158 ft | 466 kts | 208° |
| 2026-04-07 18:06 | 47.38686 | -74.16741 | 35424 ft | 469 kts | 208° |
| 2026-04-07 18:06 | 47.35685 | -74.18621 | 34787 ft | 469 kts | 208° |
| 2026-04-07 18:06 | 47.32679 | -74.20501 | 34196 ft | 469 kts | 208° |
| 2026-04-07 18:06 | 47.29680 | -74.22374 | 33519 ft | 467 kts | 208° |
| 2026-04-07 18:07 | 47.26695 | -74.24237 | 32922 ft | 465 kts | 208° |
| 2026-04-07 18:07 | 47.23731 | -74.26083 | 32410 ft | 460 kts | 208° |
| 2026-04-07 18:07 | 47.20818 | -74.27893 | 31741 ft | 448 kts | 208° |
| 2026-04-07 18:07 | 47.17999 | -74.29643 | 30647 ft | 443 kts | 208° |
| 2026-04-07 18:08 | 47.15184 | -74.31392 | 29435 ft | 436 kts | 208° |
| 2026-04-07 18:08 | 47.12414 | -74.33112 | 28224 ft | 429 kts | 208° |
| 2026-04-07 18:08 | 47.09688 | -74.34803 | 27079 ft | 422 kts | 208° |
| 2026-04-07 18:08 | 47.07006 | -74.36464 | 25995 ft | 415 kts | 207° |
| 2026-04-07 18:09 | 47.04365 | -74.38098 | 24941 ft | 409 kts | 207° |
| 2026-04-07 18:09 | 47.01753 | -74.39681 | 23912 ft | 404 kts | 205° |
| 2026-04-07 18:09 | 46.99044 | -74.40790 | 22709 ft | 404 kts | 193° |
| 2026-04-07 18:09 | 46.96267 | -74.41210 | 21679 ft | 399 kts | 188° |
| 2026-04-07 18:10 | 46.93561 | -74.41451 | 20655 ft | 391 kts | 187° |
| 2026-04-07 18:10 | 46.90869 | -74.41684 | 19644 ft | 384 kts | 188° |
| 2026-04-07 18:10 | 46.88225 | -74.41921 | 18684 ft | 377 kts | 188° |
| 2026-04-07 18:10 | 46.85630 | -74.42157 | 17695 ft | 369 kts | 188° |
| 2026-04-07 18:11 | 46.83122 | -74.42384 | 17083 ft | 352 kts | 188° |
| 2026-04-07 18:11 | 46.80726 | -74.42602 | 16270 ft | 341 kts | 188° |
| 2026-04-07 18:11 | 46.78376 | -74.42823 | 15529 ft | 332 kts | 188° |
| 2026-04-07 18:11 | 46.76123 | -74.43030 | 14994 ft | 317 kts | 188° |
| 2026-04-07 18:12 | 46.73958 | -74.43230 | 14456 ft | 306 kts | 188° |
| 2026-04-07 18:12 | 46.71867 | -74.43427 | 13897 ft | 297 kts | 189° |
| 2026-04-07 18:12 | 46.69862 | -74.43615 | 13372 ft | 291 kts | 189° |
| 2026-04-07 18:12 | 46.67818 | -74.43814 | 12873 ft | 297 kts | 189° |
| 2026-04-07 18:13 | 46.65745 | -74.44012 | 12373 ft | 300 kts | 188° |
| 2026-04-07 18:13 | 46.63651 | -74.44209 | 11872 ft | 303 kts | 188° |
| 2026-04-07 18:13 | 46.61537 | -74.44409 | 11378 ft | 306 kts | 188° |
| 2026-04-07 18:13 | 46.59403 | -74.44607 | 10889 ft | 308 kts | 188° |
| 2026-04-07 18:14 | 46.57268 | -74.44803 | 10481 ft | 306 kts | 188° |
| 2026-04-07 18:14 | 46.55186 | -74.44991 | 10226 ft | 291 kts | 188° |
| 2026-04-07 18:14 | 46.53230 | -74.45165 | 9608 ft | 282 kts | 188° |
| 2026-04-07 18:14 | 46.51309 | -74.45342 | 9113 ft | 271 kts | 188° |
| 2026-04-07 18:15 | 46.49433 | -74.45519 | 8706 ft | 271 kts | 188° |
| 2026-04-07 18:15 | 46.47553 | -74.45697 | 8278 ft | 271 kts | 188° |
| 2026-04-07 18:15 | 46.45672 | -74.45871 | 7872 ft | 270 kts | 188° |
| 2026-04-07 18:15 | 46.43802 | -74.46046 | 7472 ft | 269 kts | 188° |
| 2026-04-07 18:16 | 46.41941 | -74.46217 | 7046 ft | 269 kts | 188° |
| 2026-04-07 18:16 | 46.40094 | -74.46387 | 6687 ft | 271 kts | 188° |
| 2026-04-07 18:16 | 46.38208 | -74.46564 | 6290 ft | 272 kts | 188° |
| 2026-04-07 18:16 | 46.36322 | -74.46742 | 5922 ft | 270 kts | 187° |
| 2026-04-07 18:17 | 46.34507 | -74.46905 | 5693 ft | 253 kts | 187° |
| 2026-04-07 18:17 | 46.32801 | -74.47054 | 5347 ft | 239 kts | 187° |
| 2026-04-07 18:17 | 46.31162 | -74.47205 | 4836 ft | 235 kts | 187° |
| 2026-04-07 18:17 | 46.29535 | -74.47352 | 4529 ft | 232 kts | 186° |
| 2026-04-07 18:18 | 46.27949 | -74.47498 | 4479 ft | 228 kts | 186° |
| 2026-04-07 18:18 | 46.26368 | -74.47644 | 4533 ft | 227 kts | 186° |
| 2026-04-07 18:18 | 46.24783 | -74.47792 | 4791 ft | 233 kts | 187° |
| 2026-04-07 18:18 | 46.23095 | -74.47957 | 5191 ft | 250 kts | 187° |
| 2026-04-07 18:19 | 46.21414 | -74.48105 | 5740 ft | 235 kts | 187° |
| 2026-04-07 18:19 | 46.19815 | -74.48242 | 5965 ft | 227 kts | 188° |
| 2026-04-07 18:19 | 46.18240 | -74.48387 | 5981 ft | 226 kts | 188° |
| 2026-04-07 18:19 | 46.16677 | -74.48533 | 5999 ft | 225 kts | 188° |
| 2026-04-07 18:20 | 46.15128 | -74.48670 | 6257 ft | 223 kts | 188° |
| 2026-04-07 18:20 | 46.13566 | -74.48813 | 6838 ft | 226 kts | 188° |
| 2026-04-07 18:20 | 46.11993 | -74.48963 | 7541 ft | 226 kts | 188° |
| 2026-04-07 18:20 | 46.10423 | -74.49110 | 8004 ft | 226 kts | 188° |
| 2026-04-07 18:21 | 46.08839 | -74.49253 | 8664 ft | 229 kts | 188° |
| 2026-04-07 18:21 | 46.07279 | -74.49392 | 9490 ft | 228 kts | 188° |
| 2026-04-07 18:21 | 46.05663 | -74.49477 | 10076 ft | 242 kts | 182° |
| 2026-04-07 18:21 | 46.03954 | -74.48859 | 10379 ft | 270 kts | 155° |
| 2026-04-07 18:22 | 46.02362 | -74.47224 | 10744 ft | 292 kts | 143° |
| 2026-04-07 18:22 | 46.00760 | -74.45287 | 11137 ft | 310 kts | 143° |
| 2026-04-07 18:22 | 45.99059 | -74.43239 | 11540 ft | 327 kts | 144° |
| 2026-04-07 18:22 | 45.97257 | -74.41098 | 11897 ft | 345 kts | 144° |
| 2026-04-07 18:23 | 45.95376 | -74.38880 | 11985 ft | 353 kts | 144° |
| 2026-04-07 18:23 | 45.93502 | -74.36678 | 11981 ft | 353 kts | 144° |
| 2026-04-07 18:23 | 45.91595 | -74.34446 | 11975 ft | 353 kts | 144° |
| 2026-04-07 18:23 | 45.89707 | -74.32240 | 11882 ft | 345 kts | 144° |
| 2026-04-07 18:24 | 45.87876 | -74.30101 | 11675 ft | 334 kts | 144° |
| 2026-04-07 18:24 | 45.86065 | -74.27994 | 11039 ft | 338 kts | 144° |
| 2026-04-07 18:24 | 45.84251 | -74.25885 | 10711 ft | 331 kts | 144° |
| 2026-04-07 18:24 | 45.82488 | -74.23837 | 10509 ft | 321 kts | 144° |
| 2026-04-07 18:25 | 45.80783 | -74.21851 | 10379 ft | 310 kts | 143° |
| 2026-04-07 18:25 | 45.79211 | -74.20024 | 10243 ft | 299 kts | 143° |
| 2026-04-07 18:25 | 45.77619 | -74.18178 | 10070 ft | 289 kts | 144° |
| 2026-04-07 18:25 | 45.76078 | -74.16393 | 9884 ft | 283 kts | 144° |
| 2026-04-07 18:26 | 45.74586 | -74.14518 | 9590 ft | 288 kts | 139° |
| 2026-04-07 18:26 | 45.73138 | -74.12532 | 9323 ft | 288 kts | 138° |
| 2026-04-07 18:26 | 45.71700 | -74.10538 | 9039 ft | 287 kts | 138° |
| 2026-04-07 18:26 | 45.70416 | -74.08761 | 8769 ft | 286 kts | 138° |
| 2026-04-07 18:27 | 45.68978 | -74.06775 | 8469 ft | 285 kts | 138° |
| 2026-04-07 18:27 | 45.67555 | -74.04812 | 8178 ft | 284 kts | 138° |
| 2026-04-07 18:27 | 45.66055 | -74.03009 | 7904 ft | 280 kts | 149° |
| 2026-04-07 18:27 | 45.64399 | -74.01635 | 7616 ft | 278 kts | 154° |
| 2026-04-07 18:28 | 45.62694 | -74.00356 | 7316 ft | 277 kts | 155° |
| 2026-04-07 18:28 | 45.60986 | -73.99085 | 7026 ft | 277 kts | 155° |
| 2026-04-07 18:28 | 45.59286 | -73.97810 | 6758 ft | 275 kts | 155° |
| 2026-04-07 18:28 | 45.57594 | -73.96542 | 6465 ft | 274 kts | 154° |
| 2026-04-07 18:29 | 45.55910 | -73.95287 | 6180 ft | 272 kts | 154° |
| 2026-04-07 18:29 | 45.54237 | -73.94015 | 5884 ft | 272 kts | 153° |
| 2026-04-07 18:29 | 45.52566 | -73.92741 | 5625 ft | 272 kts | 154° |
| 2026-04-07 18:29 | 45.50899 | -73.91498 | 5341 ft | 269 kts | 155° |
| 2026-04-07 18:30 | 45.49200 | -73.90696 | 5200 ft | 255 kts | 177° |
| 2026-04-07 18:30 | 45.47525 | -73.91054 | 5058 ft | 237 kts | 207° |
| 2026-04-07 18:30 | 45.46214 | -73.92319 | 4936 ft | 223 kts | 225° |
| 2026-04-07 18:30 | 45.45089 | -73.93789 | 4754 ft | 217 kts | 226° |
| 2026-04-07 18:31 | 45.43991 | -73.95266 | 4638 ft | 217 kts | 226° |
| 2026-04-07 18:31 | 45.42885 | -73.96735 | 4440 ft | 218 kts | 226° |
| 2026-04-07 18:31 | 45.41771 | -73.98200 | 4183 ft | 219 kts | 226° |
| 2026-04-07 18:31 | 45.40655 | -73.99664 | 3945 ft | 219 kts | 226° |
| 2026-04-07 18:32 | 45.39527 | -74.01132 | 3876 ft | 221 kts | 225° |
| 2026-04-07 18:32 | 45.38395 | -74.02601 | 3830 ft | 220 kts | 225° |
| 2026-04-07 18:32 | 45.37276 | -74.04052 | 3726 ft | 220 kts | 226° |
| 2026-04-07 18:32 | 45.36118 | -74.05472 | 3624 ft | 220 kts | 219° |
| 2026-04-07 18:33 | 45.34688 | -74.06291 | 3538 ft | 227 kts | 186° |
| 2026-04-07 18:33 | 45.33171 | -74.05833 | 3460 ft | 226 kts | 148° |
| 2026-04-07 18:33 | 45.32117 | -74.04241 | 3402 ft | 220 kts | 112° |
| 2026-04-07 18:33 | 45.31794 | -74.02153 | 3370 ft | 217 kts | 91° |
| 2026-04-07 18:34 | 45.31512 | -74.00030 | 3220 ft | 221 kts | 103° |
| 2026-04-07 18:34 | 45.31203 | -73.97947 | 3101 ft | 217 kts | 84° |
| 2026-04-07 18:34 | 45.31615 | -73.95957 | 3043 ft | 209 kts | 61° |
| 2026-04-07 18:34 | 45.32447 | -73.94317 | 3007 ft | 202 kts | 42° |
| 2026-04-07 18:35 | 45.33486 | -73.92988 | 3006 ft | 201 kts | 37° |
| 2026-04-07 18:35 | 45.34532 | -73.91661 | 3005 ft | 202 kts | 39° |
| 2026-04-07 18:35 | 45.35566 | -73.90310 | 2995 ft | 202 kts | 39° |
| 2026-04-07 18:35 | 45.36593 | -73.88955 | 2928 ft | 201 kts | 40° |
| 2026-04-07 18:36 | 45.37610 | -73.87609 | 2641 ft | 197 kts | 39° |
| 2026-04-07 18:36 | 45.38597 | -73.86322 | 2354 ft | 186 kts | 39° |
| 2026-04-07 18:36 | 45.39505 | -73.85137 | 2072 ft | 171 kts | 39° |
| 2026-04-07 18:36 | 45.40336 | -73.84052 | 1844 ft | 154 kts | 39° |
| 2026-04-07 18:37 | 45.41087 | -73.83070 | 1606 ft | 141 kts | 38° |
| 2026-04-07 18:37 | 45.41786 | -73.82158 | 1423 ft | 134 kts | 39° |
| 2026-04-07 18:37 | 45.42475 | -73.81257 | 1218 ft | 134 kts | 39° |
| 2026-04-07 18:37 | 45.43160 | -73.80362 | 1013 ft | 134 kts | 39° |
| 2026-04-07 18:38 | 45.43848 | -73.79461 | 789 ft | 135 kts | 40° |
| 2026-04-07 18:38 | 45.44537 | -73.78558 | 606 ft | 135 kts | 40° |
| 2026-04-07 18:38 | 45.45223 | -73.77659 | 410 ft | 134 kts | 40° |
| 2026-04-07 18:38 | 45.45948 | -73.76714 | 354 ft | 158 kts | 40° |
| 2026-04-07 18:39 | 45.46773 | -73.75699 | 862 ft | 148 kts | 37° |
| 2026-04-07 18:39 | 45.47562 | -73.74753 | 1916 ft | 158 kts | 38° |
| 2026-04-07 18:39 | 45.48617 | -73.74032 | 2361 ft | 177 kts | 6° |
| 2026-04-07 18:39 | 45.49851 | -73.74493 | 2783 ft | 194 kts | 329° |
| 2026-04-07 18:40 | 45.50939 | -73.75803 | 3004 ft | 214 kts | 322° |
| 2026-04-07 18:40 | 45.52067 | -73.77307 | 3009 ft | 233 kts | 306° |
| 2026-04-07 18:40 | 45.52644 | -73.79494 | 2990 ft | 243 kts | 278° |
| 2026-04-07 18:40 | 45.52296 | -73.81860 | 3006 ft | 251 kts | 243° |
| 2026-04-07 18:41 | 45.51029 | -73.83572 | 3005 ft | 257 kts | 210° |
| 2026-04-07 18:41 | 45.49488 | -73.84877 | 3003 ft | 258 kts | 223° |
| 2026-04-07 18:41 | 45.48117 | -73.86478 | 3006 ft | 258 kts | 221° |
| 2026-04-07 18:41 | 45.46804 | -73.88213 | 3002 ft | 257 kts | 229° |
| 2026-04-07 18:42 | 45.45584 | -73.90068 | 2999 ft | 257 kts | 230° |
| 2026-04-07 18:42 | 45.44374 | -73.91947 | 2995 ft | 257 kts | 230° |
| 2026-04-07 18:42 | 45.43175 | -73.93826 | 2997 ft | 256 kts | 231° |
| 2026-04-07 18:42 | 45.41977 | -73.95709 | 2984 ft | 256 kts | 231° |
| 2026-04-07 18:43 | 45.40780 | -73.97593 | 2993 ft | 256 kts | 231° |
| 2026-04-07 18:43 | 45.39585 | -73.99474 | 2987 ft | 256 kts | 231° |
| 2026-04-07 18:43 | 45.38390 | -74.01355 | 2993 ft | 256 kts | 231° |
| 2026-04-07 18:43 | 45.37217 | -74.03207 | 2981 ft | 256 kts | 231° |
| 2026-04-07 18:44 | 45.35960 | -74.04990 | 2982 ft | 258 kts | 220° |
| 2026-04-07 18:44 | 45.34376 | -74.06062 | 2968 ft | 244 kts | 192° |
| 2026-04-07 18:44 | 45.32762 | -74.06016 | 2971 ft | 228 kts | 162° |
| 2026-04-07 18:44 | 45.31544 | -74.04715 | 3042 ft | 227 kts | 120° |
| 2026-04-07 18:45 | 45.31088 | -74.02587 | 3012 ft | 220 kts | 91° |
| 2026-04-07 18:45 | 45.30959 | -74.00543 | 2981 ft | 198 kts | 92° |
| 2026-04-07 18:45 | 45.30859 | -73.99264 | 2989 ft | 194 kts | 91° |
| 2026-04-07 18:45 | 45.30931 | -73.97410 | 2979 ft | 184 kts | 71° |
| 2026-04-07 18:46 | 45.31725 | -73.95375 | 2986 ft | 173 kts | 44° |
| 2026-04-07 18:46 | 45.32529 | -73.94254 | 2958 ft | 153 kts | 38° |
| 2026-04-07 18:46 | 45.33293 | -73.93254 | 2997 ft | 149 kts | 37° |
| 2026-04-07 18:46 | 45.34061 | -73.92259 | 2995 ft | 150 kts | 38° |
| 2026-04-07 18:47 | 45.34572 | -73.91592 | 2991 ft | 150 kts | 38° |
| 2026-04-07 18:47 | 45.35340 | -73.90587 | 2998 ft | 150 kts | 38° |
| 2026-04-07 18:47 | 45.36106 | -73.89583 | 2991 ft | 150 kts | 38° |
| 2026-04-07 18:47 | 45.36877 | -73.88571 | 2826 ft | 151 kts | 38° |
| 2026-04-07 18:48 | 45.37646 | -73.87566 | 2613 ft | 149 kts | 38° |
| 2026-04-07 18:48 | 45.38648 | -73.86259 | 2326 ft | 146 kts | 38° |
| 2026-04-07 18:48 | 45.39389 | -73.85289 | 2118 ft | 144 kts | 39° |
| 2026-04-07 18:48 | 45.39881 | -73.84646 | 1964 ft | 139 kts | 38° |
| 2026-04-07 18:49 | 45.40573 | -73.83739 | 1779 ft | 134 kts | 38° |
| 2026-04-07 18:49 | 45.41251 | -73.82856 | 1583 ft | 134 kts | 38° |
| 2026-04-07 18:49 | 45.41942 | -73.81953 | 1388 ft | 135 kts | 39° |
| 2026-04-07 18:49 | 45.42632 | -73.81054 | 1202 ft | 134 kts | 39° |
| 2026-04-07 18:50 | 45.43328 | -73.80168 | 976 ft | 135 kts | 39° |
| 2026-04-07 18:50 | 45.44024 | -73.79275 | 799 ft | 135 kts | 43° |
| 2026-04-07 18:50 | 45.44688 | -73.78315 | 571 ft | 136 kts | 43° |
| 2026-04-07 18:50 | 45.45385 | -73.77443 | 434 ft | 133 kts | 39° |
| 2026-04-07 18:51 | 45.46092 | -73.76545 | 179 ft | 137 kts | 42° |
| 2026-04-07 18:51 | 45.46750 | -73.75664 | 114 ft | 120 kts | 42° |
| 2026-04-07 18:51 | 45.47271 | -73.74985 | 115 ft | 84 kts | 44° |
| 2026-04-07 18:51 | 45.47629 | -73.74513 | 111 ft | 53 kts | 44° |
| 2026-04-07 18:52 | 45.47755 | -73.74245 | 113 ft | 22 kts | 72° |
| 2026-04-07 18:52 | 45.47788 | -73.74096 | 114 ft | 10 kts | 71° |
| 2026-04-07 18:52 | 45.47794 | -73.74011 | 114 ft | 7 kts | 104° |
| 2026-04-07 18:52 | 45.47775 | -73.73982 | 113 ft | 1 kts | 154° |
| 2026-04-07 18:53 | 45.47773 | -73.73982 | 113 ft | 0 kts | 161° |
| 2026-04-07 18:55 | 45.47771 | -73.73983 | 118 ft | 1 kts | 183° |
| 2026-04-07 18:55 | 45.47743 | -73.73992 | 116 ft | 7 kts | 199° |
| 2026-04-07 18:55 | 45.47704 | -73.74029 | 116 ft | 7 kts | 219° |
| 2026-04-07 18:55 | 45.47667 | -73.74074 | 118 ft | 7 kts | 223° |
| 2026-04-07 18:56 | 45.47631 | -73.74121 | 114 ft | 7 kts | 223° |
| 2026-04-07 18:56 | 45.47595 | -73.74168 | 116 ft | 7 kts | 223° |
| 2026-04-07 18:56 | 45.47556 | -73.74219 | 115 ft | 9 kts | 223° |
| 2026-04-07 18:56 | 45.47510 | -73.74280 | 115 ft | 9 kts | 223° |
| 2026-04-07 18:57 | 45.47464 | -73.74338 | 116 ft | 6 kts | 217° |
| 2026-04-07 18:57 | 45.47419 | -73.74397 | 112 ft | 9 kts | 221° |
| 2026-04-07 18:57 | 45.47372 | -73.74456 | 118 ft | 9 kts | 221° |
| 2026-04-07 18:57 | 45.47326 | -73.74516 | 117 ft | 9 kts | 221° |
| 2026-04-07 18:58 | 45.47280 | -73.74577 | 117 ft | 9 kts | 223° |
| 2026-04-07 18:58 | 45.47235 | -73.74637 | 118 ft | 9 kts | 223° |
| 2026-04-07 18:58 | 45.47189 | -73.74697 | 116 ft | 9 kts | 223° |
| 2026-04-07 18:58 | 45.47143 | -73.74758 | 116 ft | 9 kts | 223° |
| 2026-04-07 18:59 | 45.47097 | -73.74819 | 114 ft | 9 kts | 223° |
| 2026-04-07 18:59 | 45.47051 | -73.74879 | 113 ft | 9 kts | 222° |
| 2026-04-07 18:59 | 45.47004 | -73.74939 | 113 ft | 9 kts | 222° |
| 2026-04-07 18:59 | 45.46958 | -73.75000 | 114 ft | 9 kts | 222° |
| 2026-04-07 19:00 | 45.46912 | -73.75060 | 112 ft | 9 kts | 222° |
| 2026-04-07 19:00 | 45.46866 | -73.75119 | 113 ft | 9 kts | 222° |
| 2026-04-07 19:00 | 45.46820 | -73.75180 | 111 ft | 9 kts | 222° |
| 2026-04-07 19:00 | 45.46774 | -73.75240 | 111 ft | 9 kts | 227° |
| 2026-04-07 19:01 | 45.46728 | -73.75300 | 112 ft | 9 kts | 222° |
| 2026-04-07 19:01 | 45.46683 | -73.75361 | 112 ft | 9 kts | 224° |
| 2026-04-07 19:01 | 45.46586 | -73.75473 | 112 ft | 9 kts | 217° |
| 2026-04-07 19:02 | 45.46563 | -73.75518 | 112 ft | 6 kts | 221° |
| 2026-04-07 19:02 | 45.46518 | -73.75578 | 111 ft | 9 kts | 218° |
| 2026-04-07 19:02 | 45.46471 | -73.75633 | 111 ft | 9 kts | 227° |
| 2026-04-07 19:02 | 45.46423 | -73.75686 | 111 ft | 9 kts | 204° |
| 2026-04-07 19:03 | 45.46364 | -73.75710 | 110 ft | 9 kts | 194° |
| 2026-04-07 19:03 | 45.46302 | -73.75725 | 111 ft | 9 kts | 187° |
| 2026-04-07 19:03 | 45.46240 | -73.75729 | 110 ft | 9 kts | 181° |
| 2026-04-07 19:03 | 45.46178 | -73.75730 | 109 ft | 9 kts | 181° |
| 2026-04-07 19:04 | 45.46116 | -73.75728 | 109 ft | 9 kts | 169° |
| 2026-04-07 19:04 | 45.46054 | -73.75720 | 110 ft | 7 kts | 178° |
| 2026-04-07 19:04 | 45.45997 | -73.75737 | 111 ft | 9 kts | 176° |
| 2026-04-07 19:04 | 45.45982 | -73.75736 | 111 ft | 0 kts | 177° |